Palmer, MA (01069)

8:00 PM EST on February 27, 2015 (GMT -0500)
Near the Palmer Rt90 exit | Change Station
CLOSE
Current Station
Personal Weather Station
Location: Palmer, MA
Elevation: 669 ft
Nearby Weather Stations

Elev 669 ft 42.18 °N, 72.33 °W | Updated 15 minutes ago

Clear
Clear
11.3 °F
Feels Like 11 °F
N
0.0
Wind Variable Wind from NNW

Today
High -- | Low -- °F
--% Chance of Precip.
Yesterday
High -- | Low -- °F
Precip. -- in
6:28 AM 5:36 PM
Waxing Gibbous, 73% visible
Pressure 30.47 in
Visibility 10.0 miles
Clouds Clear
Windchill 11 °F
Dew Point 1 °F
Humidity 62%
Rainfall 0.00 in
Snow Depth Not available.
UV 0 out of 12
Pollen .40 out of 12
Air Quality Not available.
Flu Activity Not available.
METAR KCEF 272358Z COR 29008KT 10SM CLR M08/M19 A3043 RMK AO2A SLP316 4/017 T10801189 11036 21080 52030 COR 2359

More Conditions Fewer Conditions

Pressure 30.47 in
Visibility 10.0 miles
Clouds Clear
Windchill 11 °F
Dew Point 1 °F
Humidity 62%
Rainfall 0.00 in
Snow Depth Not available.
UV 0 out of 12
Pollen .40 out of 12
Air Quality Not available.
Flu Activity Not available.
METAR KCEF 272358Z COR 29008KT 10SM CLR M08/M19 A3043 RMK AO2A SLP316 4/017 T10801189 11036 21080 52030 COR 2359

More Conditions Fewer Conditions

10-Day Weather Forecast

Almanac

Astronomy

Feb. 27, 2015 Rise Set
Actual Time
Civil Twilight
Nautical Twilight
Astronomical Twilight
Moon
Length of Visible Light
Length of Day
Tomorrow will be .
, % of the Moon is Illuminated

Today's Extremes

State Highs State Lows

Community

WunderPhotos

Upload Photos

1,800,911 photos uploaded!

WunderBlogs® & News

Nearby

Air Quality

  Air Quality AQ Index Pollutant
Not available.

Snow Depth

Station Depth Elevation

Earthquake Activity

City Distance Mag. Time & Date
Minimum magnitude displayed is 2.5.

Coastal Water Temperatures

Place Temperature

Nearby Weather Stations